createdAt,value
2018-07-08T00:00:56.231Z,14.71
2018-07-08T00:01:56.168Z,14.65
2018-07-08T00:02:56.239Z,14.60
2018-07-08T00:03:56.273Z,14.53
2018-07-08T00:04:56.149Z,14.51
2018-07-08T00:05:56.230Z,14.54
2018-07-08T00:06:56.252Z,14.51
2018-07-08T00:07:56.241Z,14.49
2018-07-08T00:08:56.235Z,14.44
2018-07-08T00:09:56.235Z,14.36
2018-07-08T00:10:56.190Z,14.29
2018-07-08T00:11:56.178Z,14.22
2018-07-08T00:12:56.267Z,14.14
2018-07-08T00:13:56.109Z,14.07
2018-07-08T00:14:56.107Z,13.98
2018-07-08T00:15:56.134Z,13.89
2018-07-08T00:16:56.174Z,13.76
2018-07-08T00:17:56.197Z,13.65
2018-07-08T00:18:56.114Z,13.56
2018-07-08T00:19:56.141Z,13.47
2018-07-08T00:20:56.222Z,13.38
2018-07-08T00:21:56.202Z,13.28
2018-07-08T00:22:56.224Z,13.20
2018-07-08T00:23:56.172Z,13.10
2018-07-08T00:24:56.248Z,13.02
2018-07-08T00:25:56.276Z,12.95
2018-07-08T00:26:56.188Z,12.87
2018-07-08T00:27:56.222Z,12.82
2018-07-08T00:28:56.247Z,12.76
2018-07-08T00:29:56.251Z,12.73
2018-07-08T00:30:56.189Z,12.72
2018-07-08T00:31:56.310Z,12.69
2018-07-08T00:32:56.279Z,12.65
2018-07-08T00:33:56.251Z,12.60
2018-07-08T00:34:56.176Z,12.53
2018-07-08T00:35:56.228Z,12.47
2018-07-08T00:36:56.279Z,12.43
2018-07-08T00:37:56.230Z,12.39
2018-07-08T00:38:56.253Z,12.32
2018-07-08T00:39:56.336Z,12.29
2018-07-08T00:40:56.221Z,12.24
2018-07-08T00:41:56.253Z,12.21
2018-07-08T00:42:56.223Z,12.16
2018-07-08T00:43:56.259Z,12.10
2018-07-08T00:44:56.190Z,12.06
2018-07-08T00:45:56.265Z,11.99
2018-07-08T00:46:56.192Z,12.02
2018-07-08T00:47:56.193Z,11.99
2018-07-08T00:48:56.265Z,11.97
2018-07-08T00:49:56.267Z,11.95
2018-07-08T00:50:56.201Z,11.94
2018-07-08T00:51:56.268Z,11.89
2018-07-08T00:52:56.269Z,11.84
2018-07-08T00:53:56.305Z,11.89
2018-07-08T00:54:56.260Z,11.94
2018-07-08T00:55:56.342Z,12.02
2018-07-08T00:56:56.262Z,12.01
2018-07-08T00:57:56.195Z,11.99
2018-07-08T00:58:56.267Z,11.97
2018-07-08T00:59:56.215Z,11.94
2018-07-08T01:00:56.175Z,11.89
2018-07-08T01:01:56.179Z,11.83
2018-07-08T01:02:56.266Z,11.87
2018-07-08T01:03:56.211Z,11.89
2018-07-08T01:04:56.272Z,11.91
2018-07-08T01:05:56.306Z,11.95
2018-07-08T01:06:56.299Z,11.94
2018-07-08T01:07:56.303Z,11.89
2018-07-08T01:08:56.305Z,11.89
2018-07-08T01:09:56.316Z,11.87
2018-07-08T01:10:56.282Z,11.83
2018-07-08T01:11:56.302Z,11.78
2018-07-08T01:12:56.199Z,11.75
2018-07-08T01:13:56.219Z,11.71
2018-07-08T01:14:56.181Z,11.76
2018-07-08T01:15:56.236Z,11.76
2018-07-08T01:16:56.239Z,11.80
2018-07-08T01:17:56.319Z,11.87
2018-07-08T01:18:56.256Z,11.87
2018-07-08T01:19:56.200Z,11.86
2018-07-08T01:20:56.239Z,11.86
2018-07-08T01:21:56.209Z,11.82
2018-07-08T01:22:56.316Z,11.78
2018-07-08T01:23:56.282Z,11.73
2018-07-08T01:24:56.222Z,11.71
2018-07-08T01:25:56.288Z,11.65
2018-07-08T01:26:56.219Z,11.60
2018-07-08T01:27:56.287Z,11.60
2018-07-08T01:28:56.294Z,11.71
2018-07-08T01:29:56.230Z,11.72
2018-07-08T01:30:56.222Z,11.79
2018-07-08T01:31:56.302Z,11.82
2018-07-08T01:32:56.221Z,11.84
2018-07-08T01:33:56.295Z,11.97
2018-07-08T01:34:56.252Z,12.16
2018-07-08T01:35:56.268Z,12.31
2018-07-08T01:36:56.260Z,12.47
2018-07-08T01:37:56.252Z,12.50
2018-07-08T01:38:56.274Z,12.58
2018-07-08T01:39:56.317Z,12.68
2018-07-08T01:40:56.295Z,12.79
2018-07-08T01:41:56.305Z,12.83
2018-07-08T01:42:56.355Z,12.84
2018-07-08T01:43:56.330Z,12.83
2018-07-08T01:44:56.238Z,12.80
2018-07-08T01:45:56.303Z,12.75
2018-07-08T01:46:56.341Z,12.75
2018-07-08T01:47:56.334Z,12.73
2018-07-08T01:48:56.269Z,12.72
2018-07-08T01:49:56.206Z,12.65
2018-07-08T01:50:56.303Z,12.61
2018-07-08T01:51:56.275Z,12.58
2018-07-08T01:52:56.311Z,12.62
2018-07-08T01:53:56.244Z,12.73
2018-07-08T01:54:56.285Z,12.83
2018-07-08T01:55:56.212Z,12.92
2018-07-08T01:56:56.315Z,13.03
2018-07-08T01:57:56.346Z,13.10
2018-07-08T01:58:56.344Z,13.16
2018-07-08T01:59:56.210Z,13.18
2018-07-08T02:00:56.338Z,13.21
2018-07-08T02:01:56.348Z,13.23
2018-07-08T02:02:56.309Z,13.18
2018-07-08T02:03:56.317Z,13.18
2018-07-08T02:04:56.310Z,13.17
2018-07-08T02:05:56.338Z,13.16
2018-07-08T02:06:56.344Z,13.10
2018-07-08T02:07:56.317Z,13.07
2018-07-08T02:08:56.343Z,13.03
2018-07-08T02:09:56.317Z,12.98
2018-07-08T02:10:56.287Z,12.96
2018-07-08T02:11:56.317Z,12.94
2018-07-08T02:12:56.241Z,12.89
2018-07-08T02:13:56.224Z,12.84
2018-07-08T02:14:56.255Z,12.77
2018-07-08T02:15:56.322Z,12.73
2018-07-08T02:16:56.320Z,12.66
2018-07-08T02:17:56.320Z,12.57
2018-07-08T02:18:56.252Z,12.47
2018-07-08T02:19:56.255Z,12.42
2018-07-08T02:20:56.268Z,12.37
2018-07-08T02:21:56.322Z,12.31
2018-07-08T02:22:56.324Z,12.28
2018-07-08T02:23:56.265Z,12.24
2018-07-08T02:24:56.259Z,12.21
2018-07-08T02:25:56.327Z,12.20
2018-07-08T02:26:56.261Z,12.10
2018-07-08T02:27:56.260Z,12.02
2018-07-08T02:28:56.329Z,11.95
2018-07-08T02:29:56.330Z,11.84
2018-07-08T02:30:56.265Z,11.80
2018-07-08T02:31:56.337Z,11.72
2018-07-08T02:32:56.332Z,11.61
2018-07-08T02:33:56.262Z,11.53
2018-07-08T02:34:56.335Z,11.43
2018-07-08T02:35:56.252Z,11.33
2018-07-08T02:36:56.271Z,11.27
2018-07-08T02:37:56.333Z,11.18
2018-07-08T02:38:56.312Z,11.11
2018-07-08T02:39:56.367Z,11.06
2018-07-08T02:40:56.267Z,11.00
2018-07-08T02:41:56.368Z,10.94
2018-07-08T02:42:56.306Z,10.87
2018-07-08T02:43:56.260Z,10.83
2018-07-08T02:44:56.279Z,10.74
2018-07-08T02:45:56.281Z,10.67
2018-07-08T02:46:56.343Z,10.61
2018-07-08T02:47:56.345Z,10.57
2018-07-08T02:48:56.343Z,10.50
2018-07-08T02:49:56.277Z,10.42
2018-07-08T02:50:56.355Z,10.39
2018-07-08T02:51:56.280Z,10.35
2018-07-08T02:52:56.349Z,10.32
2018-07-08T02:53:56.277Z,10.27
2018-07-08T02:54:56.351Z,10.24
2018-07-08T02:55:56.281Z,10.23
2018-07-08T02:56:56.354Z,10.21
2018-07-08T02:57:56.283Z,10.16
2018-07-08T02:58:56.350Z,10.11
2018-07-08T02:59:56.283Z,10.11
2018-07-08T03:00:56.352Z,10.09
2018-07-08T03:01:56.388Z,10.08
2018-07-08T03:02:56.284Z,10.04
2018-07-08T03:03:56.369Z,10.04
2018-07-08T03:04:56.274Z,10.01
2018-07-08T03:05:56.302Z,10.01
2018-07-08T03:06:56.348Z,10.00
2018-07-08T03:07:56.230Z,9.94
2018-07-08T03:08:56.380Z,9.94
2018-07-08T03:09:56.297Z,9.91
2018-07-08T03:10:56.279Z,9.91
2018-07-08T03:11:56.234Z,9.90
2018-07-08T03:12:56.292Z,9.89
2018-07-08T03:13:56.358Z,9.86
2018-07-08T03:14:56.265Z,9.84
2018-07-08T03:15:56.357Z,9.84
2018-07-08T03:16:56.388Z,9.82
2018-07-08T03:17:56.334Z,9.80
2018-07-08T03:18:56.305Z,9.79
2018-07-08T03:19:56.262Z,9.78
2018-07-08T03:20:56.392Z,9.78
2018-07-08T03:21:56.336Z,9.76
2018-07-08T03:22:56.395Z,9.72
2018-07-08T03:23:56.265Z,9.76
2018-07-08T03:24:56.368Z,9.75
2018-07-08T03:25:56.302Z,9.71
2018-07-08T03:26:56.376Z,9.71
2018-07-08T03:27:56.375Z,9.72
2018-07-08T03:28:56.300Z,9.75
2018-07-08T03:29:56.311Z,9.72
2018-07-08T03:30:56.379Z,9.73
2018-07-08T03:31:56.375Z,9.72
2018-07-08T03:32:56.310Z,9.73
2018-07-08T03:33:56.302Z,9.71
2018-07-08T03:34:56.375Z,9.71
2018-07-08T03:35:56.390Z,9.75
2018-07-08T03:36:56.307Z,9.73
2018-07-08T03:37:56.309Z,9.76
2018-07-08T03:38:56.308Z,9.78
2018-07-08T03:39:56.309Z,9.78
2018-07-08T03:40:56.309Z,9.73
2018-07-08T03:41:56.389Z,9.76
2018-07-08T03:42:56.331Z,9.73
2018-07-08T03:43:56.280Z,9.71
2018-07-08T03:44:56.380Z,9.68
2018-07-08T03:45:56.373Z,9.69
2018-07-08T03:46:56.252Z,9.66
2018-07-08T03:47:56.291Z,9.71
2018-07-08T03:48:56.332Z,9.72
2018-07-08T03:49:56.272Z,9.76
2018-07-08T03:50:56.336Z,9.78
2018-07-08T03:51:56.291Z,9.84
2018-07-08T03:52:56.254Z,9.91
2018-07-08T03:53:56.339Z,9.94
2018-07-08T03:54:56.273Z,9.97
2018-07-08T03:55:56.318Z,10.00
2018-07-08T03:56:56.373Z,10.05
2018-07-08T03:57:56.369Z,10.13
2018-07-08T03:58:56.348Z,10.18
2018-07-08T03:59:56.315Z,10.21
2018-07-08T04:00:56.351Z,10.24
2018-07-08T04:01:56.283Z,10.28
2018-07-08T04:02:56.342Z,10.36
2018-07-08T04:03:56.281Z,10.41
2018-07-08T04:04:56.410Z,10.43
2018-07-08T04:05:56.329Z,10.46
2018-07-08T04:06:56.347Z,10.50
2018-07-08T04:07:56.406Z,10.60
2018-07-08T04:08:56.295Z,10.68
2018-07-08T04:09:56.463Z,10.74
2018-07-08T04:10:56.394Z,10.77
2018-07-08T04:11:56.430Z,10.84
2018-07-08T04:12:56.422Z,10.88
2018-07-08T04:13:56.433Z,10.95
2018-07-08T04:14:56.332Z,11.05
2018-07-08T04:15:56.330Z,11.13
2018-07-08T04:16:56.397Z,11.22
2018-07-08T04:17:56.335Z,11.32
2018-07-08T04:18:56.335Z,11.36
2018-07-08T04:19:56.324Z,11.43
2018-07-08T04:20:56.401Z,11.57
2018-07-08T04:21:56.341Z,11.67
2018-07-08T04:22:56.403Z,11.79
2018-07-08T04:23:56.297Z,11.91
2018-07-08T04:24:56.367Z,11.95
2018-07-08T04:25:56.425Z,12.01
2018-07-08T04:26:56.406Z,12.06
2018-07-08T04:27:56.339Z,12.09
2018-07-08T04:28:56.403Z,12.14
2018-07-08T04:29:56.381Z,12.22
2018-07-08T04:30:56.408Z,12.26
2018-07-08T04:31:56.417Z,12.33
2018-07-08T04:32:56.407Z,12.40
2018-07-08T04:33:56.344Z,12.44
2018-07-08T04:34:56.342Z,12.50
2018-07-08T04:35:56.371Z,12.54
2018-07-08T04:36:56.337Z,12.61
2018-07-08T04:37:56.350Z,12.65
2018-07-08T04:38:56.343Z,12.69
2018-07-08T04:39:56.342Z,12.75
2018-07-08T04:40:56.383Z,12.76
2018-07-08T04:41:56.345Z,12.80
2018-07-08T04:42:56.403Z,12.83
2018-07-08T04:43:56.375Z,12.86
2018-07-08T04:44:56.348Z,12.89
2018-07-08T04:45:56.419Z,12.89
2018-07-08T04:46:56.422Z,12.92
2018-07-08T04:47:56.397Z,12.96
2018-07-08T04:48:56.316Z,12.99
2018-07-08T04:49:56.420Z,13.05
2018-07-08T04:50:56.354Z,13.07
2018-07-08T04:51:56.384Z,13.10
2018-07-08T04:52:56.349Z,13.13
2018-07-08T04:53:56.355Z,13.17
2018-07-08T04:54:56.422Z,13.18
2018-07-08T04:55:56.334Z,13.23
2018-07-08T04:56:56.440Z,13.28
2018-07-08T04:57:56.406Z,13.32
2018-07-08T04:58:56.447Z,13.35
2018-07-08T04:59:56.340Z,13.40
2018-07-08T05:00:56.535Z,13.46
2018-07-08T05:01:56.430Z,13.51
2018-07-08T05:02:56.432Z,13.57
2018-07-08T05:03:56.454Z,13.59
2018-07-08T05:04:56.368Z,13.61
2018-07-08T05:05:56.432Z,13.61
2018-07-08T05:06:56.459Z,13.61
2018-07-08T05:07:56.409Z,13.56
2018-07-08T05:08:56.410Z,13.56
2018-07-08T05:09:56.457Z,13.57
2018-07-08T05:10:56.395Z,13.57
2018-07-08T05:11:56.434Z,13.62
2018-07-08T05:12:56.404Z,13.62
2018-07-08T05:13:56.418Z,13.64
2018-07-08T05:14:56.504Z,13.65
2018-07-08T05:15:56.410Z,13.66
2018-07-08T05:16:56.453Z,13.65
2018-07-08T05:17:56.471Z,13.66
2018-07-08T05:18:56.417Z,13.65
2018-07-08T05:19:56.339Z,13.68
2018-07-08T05:20:56.473Z,13.70
2018-07-08T05:21:56.477Z,13.69
2018-07-08T05:22:56.397Z,13.72
2018-07-08T05:23:56.446Z,13.77
2018-07-08T05:24:56.350Z,13.80
2018-07-08T05:25:56.422Z,13.88
2018-07-08T05:26:56.416Z,13.93
2018-07-08T05:27:56.402Z,13.99
2018-07-08T05:28:56.448Z,14.02
2018-07-08T05:29:56.522Z,14.09
2018-07-08T05:30:56.421Z,14.11
2018-07-08T05:31:56.489Z,14.11
2018-07-08T05:32:56.450Z,14.15
2018-07-08T05:33:56.351Z,14.21
2018-07-08T05:34:56.448Z,14.21
2018-07-08T05:35:56.354Z,14.25
2018-07-08T05:36:56.479Z,14.31
2018-07-08T05:37:56.407Z,14.33
2018-07-08T05:38:56.492Z,14.38
2018-07-08T05:39:56.481Z,14.39
2018-07-08T05:40:56.474Z,14.40
2018-07-08T05:41:56.417Z,14.39
2018-07-08T05:42:56.392Z,14.42
2018-07-08T05:43:56.414Z,14.44
2018-07-08T05:44:56.441Z,14.46
2018-07-08T05:45:56.437Z,14.47
2018-07-08T05:46:56.430Z,14.49
2018-07-08T05:47:56.499Z,14.57
2018-07-08T05:48:56.385Z,14.60
2018-07-08T05:49:56.418Z,14.65
2018-07-08T05:50:56.483Z,14.62
2018-07-08T05:51:56.442Z,14.66
2018-07-08T05:52:56.439Z,14.72
2018-07-08T05:53:56.443Z,14.75
2018-07-08T05:54:56.469Z,14.76
2018-07-08T05:55:56.402Z,14.79
2018-07-08T05:56:56.399Z,14.84
2018-07-08T05:57:56.469Z,14.91
2018-07-08T05:58:56.461Z,14.86
2018-07-08T05:59:56.404Z,14.95
2018-07-08T06:00:56.427Z,14.98
2018-07-08T06:01:56.474Z,14.98
2018-07-08T06:02:56.403Z,15.07
2018-07-08T06:03:56.472Z,15.03
2018-07-08T06:04:56.446Z,14.96
2018-07-08T06:05:56.440Z,14.96
2018-07-08T06:06:56.519Z,14.96
2018-07-08T06:07:56.442Z,14.92
2018-07-08T06:08:56.442Z,14.92
2018-07-08T06:09:56.504Z,14.92
2018-07-08T06:10:56.438Z,14.86
2018-07-08T06:11:56.440Z,14.83
2018-07-08T06:12:56.443Z,14.80
2018-07-08T06:13:56.422Z,14.87
2018-07-08T06:14:56.461Z,14.91
2018-07-08T06:15:56.437Z,14.98
2018-07-08T06:16:56.397Z,15.04
2018-07-08T06:17:56.524Z,15.04
2018-07-08T06:18:56.518Z,15.08
2018-07-08T06:19:56.518Z,15.15
2018-07-08T06:20:56.463Z,15.18
2018-07-08T06:21:56.458Z,15.17
2018-07-08T06:22:56.515Z,15.29
2018-07-08T06:23:56.463Z,15.37
2018-07-08T06:24:56.419Z,15.39
2018-07-08T06:25:56.464Z,15.43
2018-07-08T06:26:56.373Z,15.51
2018-07-08T06:27:56.471Z,15.57
2018-07-08T06:28:56.387Z,15.64
2018-07-08T06:29:56.443Z,15.73
2018-07-08T06:30:56.385Z,15.93
2018-07-08T06:31:56.441Z,16.05
2018-07-08T06:32:56.449Z,16.18
2018-07-08T06:33:56.479Z,16.27
2018-07-08T06:34:56.459Z,16.41
2018-07-08T06:35:56.521Z,16.38
2018-07-08T06:36:56.497Z,16.33
2018-07-08T06:37:56.465Z,16.48
2018-07-08T06:38:56.475Z,16.57
2018-07-08T06:39:56.434Z,16.69
2018-07-08T06:40:56.463Z,16.61
2018-07-08T06:41:56.499Z,16.76
2018-07-08T06:42:56.465Z,16.91
2018-07-08T06:43:56.456Z,16.98
2018-07-08T06:44:56.404Z,16.77
2018-07-08T06:45:56.528Z,16.76
2018-07-08T06:46:56.458Z,16.65
2018-07-08T06:47:56.455Z,16.69
2018-07-08T06:48:56.460Z,16.73
2018-07-08T06:49:56.530Z,16.79
2018-07-08T06:50:56.538Z,16.77
2018-07-08T06:51:56.591Z,16.62
2018-07-08T06:52:56.506Z,16.44
2018-07-08T06:53:56.475Z,16.55
2018-07-08T06:54:56.412Z,16.58
2018-07-08T06:55:56.461Z,16.55
2018-07-08T06:56:56.447Z,16.48
2018-07-08T06:57:56.490Z,16.44
2018-07-08T06:58:56.462Z,16.41
2018-07-08T06:59:56.418Z,16.47
2018-07-08T07:00:56.420Z,16.46
2018-07-08T07:01:56.467Z,16.46
2018-07-08T07:02:56.470Z,16.44
2018-07-08T07:03:56.511Z,16.50
2018-07-08T07:04:56.465Z,16.58
2018-07-08T07:05:56.442Z,16.61
2018-07-08T07:06:56.511Z,16.62
2018-07-08T07:07:56.446Z,16.62
2018-07-08T07:08:56.556Z,16.55
2018-07-08T07:09:56.447Z,16.65
2018-07-08T07:10:56.448Z,16.66
2018-07-08T07:11:56.445Z,16.62
2018-07-08T07:12:56.452Z,16.59
2018-07-08T07:13:56.455Z,16.65
2018-07-08T07:14:56.516Z,16.74
2018-07-08T07:15:56.457Z,16.69
2018-07-08T07:16:56.452Z,16.73
2018-07-08T07:17:56.567Z,16.69
2018-07-08T07:18:56.527Z,16.63
2018-07-08T07:19:56.455Z,16.65
2018-07-08T07:20:56.524Z,16.59
2018-07-08T07:21:56.454Z,16.57
2018-07-08T07:22:56.463Z,16.47
2018-07-08T07:23:56.527Z,16.43
2018-07-08T07:24:56.525Z,16.39
2018-07-08T07:25:56.425Z,16.47
2018-07-08T07:26:56.497Z,16.51
2018-07-08T07:27:56.500Z,16.57
2018-07-08T07:28:56.505Z,16.54
2018-07-08T07:29:56.528Z,16.66
2018-07-08T07:30:56.516Z,16.92
2018-07-08T07:31:56.505Z,17.16
2018-07-08T07:32:56.491Z,17.44
2018-07-08T07:33:56.553Z,17.57
2018-07-08T07:34:56.438Z,17.50
2018-07-08T07:35:56.432Z,17.24
2018-07-08T07:36:56.502Z,17.05
2018-07-08T07:37:56.524Z,16.92
2018-07-08T07:38:56.434Z,16.92
2018-07-08T07:39:56.523Z,16.95
2018-07-08T07:40:56.484Z,16.98
2018-07-08T07:41:56.482Z,16.88
2018-07-08T07:42:56.531Z,16.84
2018-07-08T07:43:56.509Z,16.76
2018-07-08T07:44:56.466Z,16.69
2018-07-08T07:45:56.575Z,16.66
2018-07-08T07:46:56.539Z,16.69
2018-07-08T07:47:56.480Z,16.72
2018-07-08T07:48:56.474Z,16.80
2018-07-08T07:49:56.542Z,16.92
2018-07-08T07:50:56.545Z,16.97
2018-07-08T07:51:56.479Z,16.88
2018-07-08T07:52:56.542Z,17.05
2018-07-08T07:53:56.542Z,17.35
2018-07-08T07:54:56.506Z,17.42
2018-07-08T07:55:56.519Z,17.57
2018-07-08T07:56:56.549Z,17.72
2018-07-08T07:57:56.522Z,17.76
2018-07-08T07:58:56.558Z,17.89
2018-07-08T07:59:56.459Z,17.92
2018-07-08T08:00:56.579Z,18.09
2018-07-08T08:01:56.578Z,18.31
2018-07-08T08:02:56.531Z,18.47
2018-07-08T08:03:56.507Z,18.44
2018-07-08T08:04:56.452Z,18.36
2018-07-08T08:05:56.543Z,18.57
2018-07-08T08:06:56.549Z,18.66
2018-07-08T08:07:56.522Z,18.69
2018-07-08T08:08:56.460Z,19.03
2018-07-08T08:09:56.523Z,19.20
2018-07-08T08:10:56.460Z,19.36
2018-07-08T08:11:56.481Z,19.17
2018-07-08T08:12:56.517Z,19.20
2018-07-08T08:13:56.605Z,19.06
2018-07-08T08:14:56.465Z,19.06
2018-07-08T08:15:56.595Z,19.36
2018-07-08T08:16:56.497Z,19.27
2018-07-08T08:17:56.500Z,19.32
2018-07-08T08:18:56.567Z,19.53
2018-07-08T08:19:56.538Z,19.60
2018-07-08T08:20:56.566Z,19.60
2018-07-08T08:21:56.528Z,19.51
2018-07-08T08:22:56.586Z,19.38
2018-07-08T08:23:56.541Z,19.32
2018-07-08T08:24:56.599Z,19.09
2018-07-08T08:25:56.604Z,18.99
2018-07-08T08:26:56.565Z,19.08
2018-07-08T08:27:56.596Z,18.84
2018-07-08T08:28:56.534Z,18.92
2018-07-08T08:29:56.586Z,19.02
2018-07-08T08:30:56.568Z,19.25
2018-07-08T08:31:56.533Z,19.08
2018-07-08T08:32:56.471Z,19.13
2018-07-08T08:33:56.504Z,19.05
2018-07-08T08:34:56.526Z,19.06
2018-07-08T08:35:56.550Z,19.20
2018-07-08T08:36:56.481Z,19.17
2018-07-08T08:37:56.538Z,19.33
2018-07-08T08:38:56.476Z,19.53
2018-07-08T08:39:56.571Z,19.57
2018-07-08T08:40:56.608Z,19.53
2018-07-08T08:41:56.536Z,19.55
2018-07-08T08:42:56.554Z,19.58
2018-07-08T08:43:56.474Z,19.49
2018-07-08T08:44:56.603Z,19.46
2018-07-08T08:45:56.677Z,19.47
2018-07-08T08:46:56.511Z,19.73
2018-07-08T08:47:56.585Z,19.74
2018-07-08T08:48:56.541Z,19.95
2018-07-08T08:49:56.583Z,20.07
2018-07-08T08:50:56.584Z,20.20
2018-07-08T08:51:56.517Z,20.25
2018-07-08T08:52:56.581Z,20.32
2018-07-08T08:53:56.520Z,20.54
2018-07-08T08:54:56.585Z,20.57
2018-07-08T08:55:56.589Z,20.49
2018-07-08T08:56:56.569Z,20.24
2018-07-08T08:57:56.630Z,20.16
2018-07-08T08:58:56.608Z,20.20
2018-07-08T08:59:56.668Z,20.03
2018-07-08T09:00:56.615Z,20.10
2018-07-08T09:01:56.592Z,20.23
2018-07-08T09:02:56.563Z,20.25
2018-07-08T09:03:56.491Z,20.31
2018-07-08T09:04:56.571Z,20.10
2018-07-08T09:05:56.482Z,20.14
2018-07-08T09:06:56.463Z,20.12
2018-07-08T09:07:56.537Z,20.24
2018-07-08T09:08:56.574Z,20.42
2018-07-08T09:09:56.551Z,20.82
2018-07-08T09:10:56.551Z,20.90
2018-07-08T09:11:56.528Z,20.70
2018-07-08T09:12:56.462Z,20.56
2018-07-08T09:13:56.532Z,20.46
2018-07-08T09:14:56.530Z,20.53
2018-07-08T09:15:56.501Z,20.76
2018-07-08T09:16:56.570Z,20.79
2018-07-08T09:17:56.519Z,20.83
2018-07-08T09:18:56.513Z,20.83
2018-07-08T09:19:56.543Z,20.88
2018-07-08T09:20:56.637Z,21.01
2018-07-08T09:21:56.634Z,21.08
2018-07-08T09:22:56.514Z,20.99
2018-07-08T09:23:56.556Z,21.01
2018-07-08T09:24:56.651Z,21.01
2018-07-08T09:25:56.574Z,21.18
2018-07-08T09:26:56.645Z,21.22
2018-07-08T09:27:56.596Z,21.04
2018-07-08T09:28:56.574Z,20.79
2018-07-08T09:29:56.584Z,20.82
2018-07-08T09:30:56.643Z,20.93
2018-07-08T09:31:56.610Z,21.13
2018-07-08T09:32:56.616Z,21.22
2018-07-08T09:33:56.611Z,21.28
2018-07-08T09:34:56.641Z,21.39
2018-07-08T09:35:56.614Z,21.40
2018-07-08T09:36:56.651Z,21.21
2018-07-08T09:37:56.510Z,21.18
2018-07-08T09:38:56.832Z,20.99
2018-07-08T09:39:56.554Z,20.95
2018-07-08T09:40:56.654Z,20.91
2018-07-08T09:41:56.516Z,21.13
2018-07-08T09:42:56.571Z,21.34
2018-07-08T09:43:56.581Z,21.13
2018-07-08T09:44:56.578Z,20.90
2018-07-08T09:45:56.676Z,20.82
2018-07-08T09:46:56.587Z,20.80
2018-07-08T09:47:56.661Z,20.95
2018-07-08T09:48:56.591Z,21.01
2018-07-08T09:49:56.621Z,21.08
2018-07-08T09:50:56.622Z,21.27
2018-07-08T09:51:56.604Z,21.51
2018-07-08T09:52:56.526Z,21.62
2018-07-08T09:53:56.625Z,21.72
2018-07-08T09:54:56.562Z,21.83
2018-07-08T09:55:56.630Z,21.64
2018-07-08T09:56:56.562Z,21.76
2018-07-08T09:57:56.637Z,21.73
2018-07-08T09:58:56.562Z,21.76
2018-07-08T09:59:56.646Z,21.93
2018-07-08T10:00:56.629Z,22.19
2018-07-08T10:01:56.564Z,22.09
2018-07-08T10:02:56.567Z,22.23
2018-07-08T10:03:56.567Z,22.30
2018-07-08T10:04:56.655Z,22.64
2018-07-08T10:05:56.606Z,22.82
2018-07-08T10:06:56.592Z,22.80
2018-07-08T10:07:56.540Z,23.04
2018-07-08T10:08:56.671Z,23.19
2018-07-08T10:09:56.611Z,23.13
2018-07-08T10:10:56.685Z,23.22
2018-07-08T10:11:56.609Z,23.26
2018-07-08T10:12:56.643Z,23.22
2018-07-08T10:13:56.676Z,22.87
2018-07-08T10:14:56.689Z,22.70
2018-07-08T10:15:56.518Z,22.53
2018-07-08T10:16:56.632Z,22.65
2018-07-08T10:17:56.581Z,22.87
2018-07-08T10:18:56.580Z,22.94
2018-07-08T10:19:56.774Z,22.79
2018-07-08T10:20:56.604Z,22.41
2018-07-08T10:21:56.536Z,22.41
2018-07-08T10:22:56.674Z,22.46
2018-07-08T10:23:56.513Z,22.41
2018-07-08T10:24:56.621Z,22.45
2018-07-08T10:25:56.646Z,22.67
2018-07-08T10:26:56.651Z,22.91
2018-07-08T10:27:56.584Z,23.09
2018-07-08T10:28:56.651Z,22.93
2018-07-08T10:29:56.646Z,22.88
2018-07-08T10:30:56.584Z,22.84
2018-07-08T10:32:56.655Z,22.94
2018-07-08T10:33:56.585Z,23.23
2018-07-08T10:34:56.653Z,23.47
2018-07-08T10:35:56.611Z,23.53
2018-07-08T10:36:56.559Z,23.28
2018-07-08T10:37:56.627Z,23.15
2018-07-08T10:38:56.554Z,23.19
2018-07-08T10:39:56.591Z,23.16
2018-07-08T10:40:56.635Z,23.13
2018-07-08T10:41:56.609Z,23.22
2018-07-08T10:42:56.630Z,23.23
2018-07-08T10:43:56.634Z,23.08
2018-07-08T10:44:56.688Z,23.08
2018-07-08T10:45:56.639Z,23.05
2018-07-08T10:46:56.661Z,23.22
2018-07-08T10:47:56.563Z,23.26
2018-07-08T10:48:56.641Z,23.27
2018-07-08T10:49:56.560Z,23.39
2018-07-08T10:50:56.566Z,23.49
2018-07-08T10:51:56.700Z,23.51
2018-07-08T10:52:56.589Z,23.50
2018-07-08T10:53:56.644Z,23.61
2018-07-08T10:54:56.700Z,23.67
2018-07-08T10:55:56.665Z,23.50
2018-07-08T10:56:56.604Z,23.69
2018-07-08T10:57:56.623Z,23.71
2018-07-08T10:58:56.672Z,23.82
2018-07-08T10:59:56.604Z,24.14
2018-07-08T11:00:56.673Z,24.31
2018-07-08T11:01:56.670Z,24.53
2018-07-08T11:02:56.606Z,24.70
2018-07-08T11:03:56.707Z,24.63
2018-07-08T11:04:56.673Z,24.61
2018-07-08T11:05:56.609Z,24.54
2018-07-08T11:06:56.674Z,24.49
2018-07-08T11:07:56.610Z,24.60
2018-07-08T11:08:56.674Z,24.67
2018-07-08T11:09:56.675Z,24.72
2018-07-08T11:10:56.630Z,24.70
2018-07-08T11:11:56.680Z,24.70
2018-07-08T11:12:56.678Z,24.66
2018-07-08T11:13:56.679Z,24.79
2018-07-08T11:14:56.612Z,24.67
2018-07-08T11:15:56.584Z,24.63
2018-07-08T11:16:56.715Z,24.41
2018-07-08T11:17:56.610Z,24.16
2018-07-08T11:18:56.713Z,24.25
2018-07-08T11:19:56.652Z,24.34
2018-07-08T11:20:56.767Z,24.33
2018-07-08T11:21:56.626Z,24.40
2018-07-08T11:22:56.704Z,24.25
2018-07-08T11:23:56.649Z,24.25
2018-07-08T11:24:56.711Z,24.22
2018-07-08T11:25:56.623Z,24.22
2018-07-08T11:26:56.695Z,23.96
2018-07-08T11:27:56.628Z,23.63
2018-07-08T11:28:56.691Z,23.63
2018-07-08T11:29:56.623Z,23.86
2018-07-08T11:30:56.690Z,23.87
2018-07-08T11:31:56.694Z,23.87
2018-07-08T11:32:56.626Z,23.86
2018-07-08T11:33:56.623Z,23.83
2018-07-08T11:34:56.695Z,23.86
2018-07-08T11:35:56.665Z,23.87
2018-07-08T11:36:56.727Z,24.22
2018-07-08T11:37:56.724Z,24.38
2018-07-08T11:38:56.769Z,24.53
2018-07-08T11:39:56.716Z,24.42
2018-07-08T11:40:56.604Z,24.29
2018-07-08T11:41:56.722Z,24.25
2018-07-08T11:42:56.755Z,24.44
2018-07-08T11:43:56.699Z,24.71
2018-07-08T11:44:56.676Z,24.64
2018-07-08T11:45:56.602Z,24.51
2018-07-08T11:46:56.741Z,24.38
2018-07-08T11:47:56.640Z,24.36
2018-07-08T11:48:56.672Z,24.38
2018-07-08T11:49:56.760Z,24.61
2018-07-08T11:50:56.687Z,24.86
2018-07-08T11:51:56.686Z,24.89
2018-07-08T11:52:56.723Z,24.57
2018-07-08T11:53:56.675Z,24.41
2018-07-08T11:54:56.681Z,24.56
2018-07-08T11:55:56.707Z,24.75
2018-07-08T11:56:56.724Z,24.74
2018-07-08T11:57:56.607Z,24.79
2018-07-08T11:58:56.727Z,24.93
2018-07-08T11:59:56.731Z,25.02
2018-07-08T12:00:56.650Z,25.19
2018-07-08T12:01:56.719Z,25.33
2018-07-08T12:02:56.713Z,25.37
2018-07-08T12:03:56.638Z,25.08
2018-07-08T12:04:56.713Z,24.94
2018-07-08T12:05:56.635Z,24.90
2018-07-08T12:06:56.692Z,25.05
2018-07-08T12:07:56.717Z,25.11
2018-07-08T12:08:56.762Z,25.31
2018-07-08T12:09:56.742Z,25.52
2018-07-08T12:10:56.639Z,25.35
2018-07-08T12:11:56.620Z,25.31
2018-07-08T12:12:56.737Z,25.12
2018-07-08T12:13:56.756Z,24.77
2018-07-08T12:14:56.759Z,24.86
2018-07-08T12:15:56.689Z,25.02
2018-07-08T12:16:56.735Z,24.79
2018-07-08T12:17:56.765Z,24.86
2018-07-08T12:18:56.734Z,24.67
2018-07-08T12:19:56.650Z,24.89
2018-07-08T12:20:56.696Z,25.00
2018-07-08T12:21:56.686Z,25.27
2018-07-08T12:22:56.743Z,25.51
2018-07-08T12:23:56.762Z,25.74
2018-07-08T12:24:56.694Z,25.73
2018-07-08T12:25:56.758Z,25.82
2018-07-08T12:26:56.761Z,25.99
2018-07-08T12:27:56.631Z,26.03
2018-07-08T12:28:56.669Z,25.97
2018-07-08T12:29:56.699Z,25.99
2018-07-08T12:30:56.688Z,25.84
2018-07-08T12:31:56.706Z,25.92
2018-07-08T12:32:56.732Z,25.88
2018-07-08T12:33:56.631Z,25.60
2018-07-08T12:34:56.767Z,25.51
2018-07-08T12:35:56.705Z,25.35
2018-07-08T12:36:56.736Z,25.31
2018-07-08T12:37:56.710Z,25.40
2018-07-08T12:38:56.726Z,25.68
2018-07-08T12:39:56.764Z,25.82
2018-07-08T12:40:56.701Z,25.70
2018-07-08T12:41:56.747Z,25.73
2018-07-08T12:42:56.737Z,25.78
2018-07-08T12:43:56.738Z,25.44
2018-07-08T12:44:56.770Z,25.42
2018-07-08T12:45:56.737Z,25.45
2018-07-08T12:46:56.672Z,25.51
2018-07-08T12:47:56.676Z,25.86
2018-07-08T12:48:56.739Z,25.78
2018-07-08T12:49:56.679Z,25.45
2018-07-08T12:50:56.677Z,25.66
2018-07-08T12:51:56.745Z,25.91
2018-07-08T12:52:56.681Z,26.10
2018-07-08T12:53:56.761Z,26.03
2018-07-08T12:54:56.679Z,26.08
2018-07-08T12:55:56.748Z,26.04